createdAt,value
2023-06-17T00:00:57.006Z,22.70
2023-06-17T00:03:25.736Z,23.23
2023-06-17T00:05:53.078Z,20.48
2023-06-17T00:08:20.460Z,20.08
2023-06-17T00:10:48.145Z,22.75
2023-06-17T00:13:15.513Z,22.00
2023-06-17T00:15:42.758Z,21.58
2023-06-17T00:18:10.042Z,20.88
2023-06-17T00:20:38.742Z,21.40
2023-06-17T00:23:05.979Z,21.27
2023-06-17T00:25:33.240Z,22.27
2023-06-17T00:28:00.495Z,26.23
2023-06-17T00:30:27.721Z,24.88
2023-06-17T00:32:55.184Z,24.92
2023-06-17T00:35:22.740Z,19.83
2023-06-17T00:37:51.382Z,21.90
2023-06-17T00:40:19.025Z,23.90
2023-06-17T00:45:13.542Z,24.05
2023-06-17T00:47:41.782Z,23.25
2023-06-17T00:50:10.528Z,23.50
2023-06-17T00:52:41.967Z,19.27
2023-06-17T00:55:12.094Z,18.08
2023-06-17T00:57:40.222Z,19.63
2023-06-17T01:00:09.001Z,18.17
2023-06-17T01:02:36.454Z,16.13
2023-06-17T01:05:04.005Z,16.98
2023-06-17T01:07:39.465Z,18.40
2023-06-17T01:10:13.189Z,15.77
2023-06-17T01:12:43.533Z,17.05
2023-06-17T01:15:12.539Z,17.60
2023-06-17T01:17:40.950Z,18.38
2023-06-17T01:20:09.433Z,20.95
2023-06-17T01:22:38.822Z,18.85
2023-06-17T01:25:09.015Z,20.17
2023-06-17T01:27:36.413Z,21.17
2023-06-17T01:30:04.205Z,21.48
2023-06-17T01:32:31.651Z,24.92
2023-06-17T01:35:03.760Z,22.92
2023-06-17T01:37:38.399Z,24.40
2023-06-17T01:40:11.382Z,23.48
2023-06-17T01:42:44.576Z,22.13
2023-06-17T01:45:13.850Z,23.90
2023-06-17T01:47:41.621Z,26.45
2023-06-17T01:50:09.814Z,21.73
2023-06-17T01:52:38.998Z,22.13
2023-06-17T01:55:09.383Z,23.75
2023-06-17T01:57:37.046Z,25.67
2023-06-17T02:00:05.287Z,23.88
2023-06-17T02:02:32.874Z,21.77
2023-06-17T02:05:00.198Z,26.30
2023-06-17T02:07:27.600Z,29.17
2023-06-17T02:09:54.909Z,25.30
2023-06-17T02:12:23.670Z,25.48
2023-06-17T02:14:50.949Z,27.10
2023-06-17T02:17:18.273Z,27.42
2023-06-17T02:19:47.117Z,29.40
2023-06-17T02:22:14.459Z,24.92
2023-06-17T02:24:41.959Z,24.10
2023-06-17T02:27:09.277Z,23.73
2023-06-17T02:29:38.225Z,22.95
2023-06-17T02:32:08.377Z,24.25
2023-06-17T02:34:37.891Z,26.50
2023-06-17T02:37:05.610Z,25.67
2023-06-17T02:39:32.887Z,25.58
2023-06-17T02:42:00.245Z,20.80
2023-06-17T02:44:27.599Z,23.60
2023-06-17T02:49:25.669Z,19.80
2023-06-17T02:51:52.983Z,22.58
2023-06-17T02:54:20.476Z,31.45
2023-06-17T02:56:47.778Z,25.08
2023-06-17T02:59:15.806Z,24.33
2023-06-17T03:01:43.264Z,24.42
2023-06-17T03:04:11.424Z,32.13
2023-06-17T03:06:40.956Z,27.77
2023-06-17T03:09:08.583Z,27.17
2023-06-17T03:11:36.725Z,27.73
2023-06-17T03:14:04.591Z,27.40
2023-06-17T03:16:32.363Z,24.42
2023-06-17T03:18:59.632Z,24.50
2023-06-17T03:21:27.120Z,24.88
2023-06-17T03:23:57.512Z,24.20
2023-06-17T03:26:24.835Z,22.88
2023-06-17T03:28:52.623Z,23.00
2023-06-17T03:31:21.207Z,23.60
2023-06-17T03:33:51.852Z,28.38
2023-06-17T03:36:19.257Z,24.90
2023-06-17T03:38:46.694Z,24.02
2023-06-17T03:41:16.867Z,25.75
2023-06-17T03:43:44.434Z,26.13
2023-06-17T03:46:11.792Z,27.45
2023-06-17T03:48:40.086Z,24.88
2023-06-17T03:51:07.448Z,22.90
2023-06-17T03:53:34.996Z,26.25
2023-06-17T03:56:02.364Z,26.05
2023-06-17T03:58:31.023Z,28.42
2023-06-17T04:00:59.316Z,27.80
2023-06-17T04:03:26.903Z,29.08
2023-06-17T04:05:54.229Z,28.40
2023-06-17T04:08:22.739Z,29.20
2023-06-17T04:10:50.091Z,25.00
2023-06-17T04:13:17.651Z,25.52
2023-06-17T04:15:47.938Z,28.58
2023-06-17T04:18:15.283Z,27.77
2023-06-17T04:20:42.845Z,27.00
2023-06-17T04:23:10.131Z,28.88
2023-06-17T04:25:38.206Z,25.33
2023-06-17T04:28:05.878Z,25.77
2023-06-17T04:30:33.486Z,25.27
2023-06-17T04:33:02.270Z,27.42
2023-06-17T04:35:29.862Z,28.42
2023-06-17T04:37:57.426Z,24.90
2023-06-17T04:40:25.773Z,28.30
2023-06-17T04:42:53.715Z,26.88
2023-06-17T04:47:48.206Z,25.52
2023-06-17T04:50:18.637Z,24.73
2023-06-17T04:52:47.290Z,25.75
2023-06-17T04:55:14.696Z,26.48
2023-06-17T04:57:42.714Z,25.30
2023-06-17T05:00:11.119Z,24.92
2023-06-17T05:02:38.486Z,23.48
2023-06-17T05:05:07.183Z,26.08
2023-06-17T05:07:35.982Z,23.42
2023-06-17T05:10:03.643Z,27.63
2023-06-17T05:12:31.086Z,25.58
2023-06-17T05:14:58.358Z,26.92
2023-06-17T05:17:26.008Z,25.95
2023-06-17T05:19:53.283Z,28.63
2023-06-17T05:22:20.550Z,28.50
2023-06-17T05:24:49.207Z,27.48
2023-06-17T05:27:17.060Z,30.60
2023-06-17T05:32:11.317Z,23.88
2023-06-17T05:34:38.629Z,29.40
2023-06-17T05:37:06.235Z,31.40
2023-06-17T05:39:33.537Z,29.30
2023-06-17T05:42:02.342Z,28.75
2023-06-17T05:44:29.614Z,30.17
2023-06-17T05:46:56.850Z,26.95
2023-06-17T05:49:24.113Z,26.80
2023-06-17T05:51:51.424Z,27.80
2023-06-17T05:54:18.752Z,23.30
2023-06-17T05:56:46.024Z,25.55
2023-06-17T05:59:16.695Z,25.98
2023-06-17T06:01:45.437Z,21.23
2023-06-17T06:04:12.859Z,24.08
2023-06-17T06:06:40.248Z,24.92
2023-06-17T06:09:07.551Z,22.25
2023-06-17T06:11:34.966Z,22.33
2023-06-17T06:14:02.234Z,23.23
2023-06-17T06:16:30.980Z,24.98
2023-06-17T06:18:58.315Z,22.92
2023-06-17T06:21:25.544Z,22.52
2023-06-17T06:23:53.953Z,20.55
2023-06-17T06:26:22.972Z,22.73
2023-06-17T06:28:50.250Z,19.75
2023-06-17T06:31:17.572Z,23.38
2023-06-17T06:33:46.263Z,22.77
2023-06-17T06:36:15.117Z,23.17
2023-06-17T06:38:42.408Z,20.00
2023-06-17T06:41:09.681Z,22.30
2023-06-17T06:43:36.950Z,60.63
2023-06-17T06:46:04.316Z,23.70
2023-06-17T06:48:31.695Z,23.25
2023-06-17T06:51:00.394Z,22.35
2023-06-17T06:53:28.656Z,20.55
2023-06-17T06:55:55.907Z,22.35
2023-06-17T06:58:23.204Z,20.05
2023-06-17T07:00:50.545Z,19.30
2023-06-17T07:03:17.751Z,19.48
2023-06-17T07:05:45.040Z,21.58
2023-06-17T07:08:13.730Z,18.67
2023-06-17T07:10:42.335Z,172.63
2023-06-17T07:13:09.964Z,19.83
2023-06-17T07:15:37.378Z,20.92
2023-06-17T07:18:04.847Z,21.20
2023-06-17T07:20:32.090Z,20.67
2023-06-17T07:22:59.350Z,19.80
2023-06-17T07:25:28.013Z,20.33
2023-06-17T07:27:55.702Z,21.90
2023-06-17T07:30:23.191Z,19.90
2023-06-17T07:32:50.652Z,22.02
2023-06-17T07:35:18.844Z,20.40
2023-06-17T07:37:46.258Z,18.35
2023-06-17T07:40:14.500Z,17.42
2023-06-17T07:42:43.684Z,19.08
2023-06-17T07:45:12.330Z,19.75
2023-06-17T07:47:39.805Z,19.90
2023-06-17T07:50:09.132Z,18.13
2023-06-17T07:52:36.506Z,19.45
2023-06-17T07:55:07.744Z,17.35
2023-06-17T07:57:35.882Z,19.60
2023-06-17T08:00:06.037Z,16.10
2023-06-17T08:02:33.470Z,15.55
2023-06-17T08:05:00.970Z,16.35
2023-06-17T08:07:28.440Z,16.23
2023-06-17T08:09:55.877Z,20.23
2023-06-17T08:12:23.142Z,19.02
2023-06-17T08:14:50.742Z,17.50
2023-06-17T08:17:19.394Z,17.00
2023-06-17T08:19:46.968Z,16.65
2023-06-17T08:22:14.347Z,16.80
2023-06-17T08:24:43.445Z,16.02
2023-06-17T08:27:11.247Z,14.95
2023-06-17T08:29:38.598Z,15.13
2023-06-17T08:32:06.494Z,18.00
2023-06-17T08:34:35.235Z,19.95
2023-06-17T08:37:02.675Z,18.55
2023-06-17T08:39:31.227Z,18.58
2023-06-17T08:41:58.588Z,19.02
2023-06-17T08:44:26.768Z,17.10
2023-06-17T08:46:57.834Z,17.98
2023-06-17T08:49:26.355Z,18.88
2023-06-17T08:51:56.026Z,17.75
2023-06-17T08:54:25.352Z,17.85
2023-06-17T08:56:52.693Z,19.23
2023-06-17T08:59:20.022Z,21.95
2023-06-17T09:01:52.415Z,19.30
2023-06-17T09:04:22.076Z,18.05
2023-06-17T09:06:49.401Z,19.67
2023-06-17T09:09:18.122Z,17.88
2023-06-17T09:11:52.221Z,16.13
2023-06-17T09:14:21.417Z,18.73
2023-06-17T09:16:50.609Z,18.63
2023-06-17T09:19:18.347Z,18.25
2023-06-17T09:24:14.152Z,16.40
2023-06-17T09:26:44.268Z,16.60
2023-06-17T09:29:13.146Z,13.93
2023-06-17T09:31:50.911Z,15.30
2023-06-17T09:34:18.505Z,15.40
2023-06-17T09:39:14.613Z,14.05
2023-06-17T09:41:44.812Z,14.60
2023-06-17T09:44:12.706Z,15.43
2023-06-17T09:46:39.984Z,15.70
2023-06-17T09:49:08.211Z,13.50
2023-06-17T09:51:37.031Z,13.52
2023-06-17T09:54:05.184Z,14.77
2023-06-17T09:56:33.128Z,13.50
2023-06-17T09:59:02.131Z,13.77
2023-06-17T10:01:29.508Z,22.15
2023-06-17T10:03:56.954Z,16.77
2023-06-17T10:06:26.952Z,13.40
2023-06-17T10:08:54.618Z,14.43
2023-06-17T10:13:57.115Z,16.73
2023-06-17T10:16:29.271Z,14.30
2023-06-17T10:19:00.057Z,14.80
2023-06-17T10:21:30.707Z,13.38
2023-06-17T10:24:00.578Z,14.15
2023-06-17T10:26:29.411Z,12.65
2023-06-17T10:29:02.687Z,13.80
2023-06-17T10:31:32.585Z,13.00
2023-06-17T10:34:02.127Z,13.48
2023-06-17T10:36:29.762Z,15.73
2023-06-17T10:41:54.818Z,11.68
2023-06-17T10:44:43.041Z,11.05
2023-06-17T10:47:22.324Z,9.95
2023-06-17T10:49:50.248Z,11.73
2023-06-17T10:52:18.185Z,11.38
2023-06-17T10:54:50.053Z,10.68
2023-06-17T10:57:28.585Z,10.82
2023-06-17T10:59:55.894Z,12.55
2023-06-17T11:02:24.860Z,11.20
2023-06-17T11:04:52.409Z,11.23
2023-06-17T11:07:26.652Z,11.02
2023-06-17T11:09:54.316Z,11.25
2023-06-17T11:14:48.568Z,11.75
2023-06-17T11:17:16.095Z,12.23
2023-06-17T11:22:12.549Z,13.55
2023-06-17T11:24:39.915Z,12.23
2023-06-17T11:27:07.744Z,12.15
2023-06-17T11:29:35.079Z,10.70
2023-06-17T11:32:02.841Z,14.20
2023-06-17T11:34:30.110Z,11.73
2023-06-17T11:36:59.540Z,12.00
2023-06-17T11:39:28.860Z,12.10
2023-06-17T11:41:56.742Z,13.80
2023-06-17T11:44:24.044Z,11.65
2023-06-17T11:46:54.706Z,11.23
2023-06-17T11:49:25.127Z,10.55
2023-06-17T11:51:52.512Z,11.70
2023-06-17T11:54:26.883Z,9.95
2023-06-17T11:56:54.894Z,10.50
2023-06-17T11:59:23.094Z,10.50
2023-06-17T12:01:50.762Z,10.27
2023-06-17T12:04:18.233Z,9.15
2023-06-17T12:06:47.625Z,10.52
2023-06-17T12:09:15.576Z,10.63
2023-06-17T12:11:44.355Z,8.15
2023-06-17T12:14:13.170Z,8.57
2023-06-17T12:16:41.289Z,8.35
2023-06-17T12:19:15.511Z,9.27
2023-06-17T12:21:42.878Z,8.75
2023-06-17T12:24:10.187Z,9.90
2023-06-17T12:26:37.440Z,10.20
2023-06-17T12:29:15.865Z,7.53
2023-06-17T12:31:52.260Z,6.05
2023-06-17T12:34:19.571Z,5.18
2023-06-17T12:36:46.965Z,5.82
2023-06-17T12:39:14.310Z,6.05
2023-06-17T12:41:41.608Z,6.75
2023-06-17T12:44:10.338Z,8.63
2023-06-17T12:46:37.679Z,8.25
2023-06-17T12:49:06.162Z,9.75
2023-06-17T12:51:33.397Z,10.50
2023-06-17T12:54:00.665Z,12.20
2023-06-17T12:56:28.015Z,13.77
2023-06-17T12:58:55.319Z,10.13
2023-06-17T13:01:23.994Z,13.40
2023-06-17T13:03:51.352Z,13.27
2023-06-17T13:06:18.664Z,12.05
2023-06-17T13:08:45.907Z,13.00
2023-06-17T13:11:13.288Z,13.93
2023-06-17T13:13:40.557Z,14.45
2023-06-17T13:16:07.859Z,15.02
2023-06-17T13:18:36.715Z,15.25
2023-06-17T13:21:04.082Z,18.63
2023-06-17T13:23:31.497Z,16.83
2023-06-17T13:25:58.805Z,15.27
2023-06-17T13:28:26.170Z,14.35
2023-06-17T13:31:01.678Z,13.25
2023-06-17T13:33:29.055Z,12.75
2023-06-17T13:35:57.899Z,11.07
2023-06-17T13:38:25.257Z,12.35
2023-06-17T13:40:52.557Z,10.98
2023-06-17T13:43:19.840Z,11.73
2023-06-17T13:45:47.686Z,10.68
2023-06-17T13:48:15.011Z,9.90
2023-06-17T13:50:42.280Z,12.73
2023-06-17T13:53:10.937Z,12.13
2023-06-17T13:55:38.238Z,10.35
2023-06-17T13:58:05.547Z,11.07
2023-06-17T14:00:32.845Z,11.07
2023-06-17T14:03:00.242Z,12.57
2023-06-17T14:05:27.672Z,11.70
2023-06-17T14:07:55.003Z,9.43
2023-06-17T14:10:24.012Z,10.95
2023-06-17T14:12:51.528Z,11.50
2023-06-17T14:15:18.800Z,9.48
2023-06-17T14:17:46.099Z,10.20
2023-06-17T14:20:13.630Z,11.43
2023-06-17T14:22:40.924Z,9.70
2023-06-17T14:25:08.908Z,9.75
2023-06-17T14:27:39.109Z,10.57
2023-06-17T14:30:09.434Z,7.95
2023-06-17T14:32:36.793Z,9.15
2023-06-17T14:35:04.527Z,8.38
2023-06-17T14:37:31.856Z,8.73
2023-06-17T14:39:59.306Z,8.50
2023-06-17T14:42:26.606Z,9.18
2023-06-17T14:44:55.304Z,8.90
2023-06-17T14:47:23.384Z,9.07
2023-06-17T14:49:50.661Z,7.75
2023-06-17T14:52:18.135Z,8.85
2023-06-17T14:54:45.798Z,8.55
2023-06-17T14:57:13.049Z,9.77
2023-06-17T14:59:40.272Z,8.63
2023-06-17T15:02:33.000Z,10.90
2023-06-17T15:05:00.420Z,9.20
2023-06-17T15:07:27.672Z,8.90
2023-06-17T15:09:54.932Z,11.45
2023-06-17T15:12:22.295Z,9.80
2023-06-17T15:14:49.581Z,10.32
2023-06-17T15:17:18.263Z,8.80
2023-06-17T15:19:45.535Z,8.73
2023-06-17T15:22:12.915Z,7.22
2023-06-17T15:24:40.213Z,6.82
2023-06-17T15:27:07.599Z,7.07
2023-06-17T15:29:34.847Z,6.50
2023-06-17T15:32:02.086Z,6.80
2023-06-17T15:34:30.830Z,7.40
2023-06-17T15:36:58.098Z,9.30
2023-06-17T15:39:26.871Z,7.28
2023-06-17T15:41:55.321Z,10.05
2023-06-17T15:44:22.764Z,9.32
2023-06-17T15:46:50.673Z,10.77
2023-06-17T15:49:18.718Z,6.85
2023-06-17T15:51:47.339Z,6.90
2023-06-17T15:54:14.698Z,7.32
2023-06-17T15:56:43.946Z,6.35
2023-06-17T15:59:11.207Z,7.65
2023-06-17T16:01:38.550Z,6.38
2023-06-17T16:04:33.667Z,6.28
2023-06-17T16:07:03.949Z,8.43
2023-06-17T16:09:32.439Z,6.75
2023-06-17T16:12:00.160Z,8.27
2023-06-17T16:14:28.654Z,6.88
2023-06-17T16:16:55.921Z,6.65
2023-06-17T16:19:23.261Z,7.45
2023-06-17T16:21:50.557Z,7.38
2023-06-17T16:24:19.286Z,7.18
2023-06-17T16:26:46.582Z,7.03
2023-06-17T16:29:13.910Z,6.40
2023-06-17T16:31:41.212Z,6.50
2023-06-17T16:34:08.497Z,6.22
2023-06-17T16:36:35.779Z,6.78
2023-06-17T16:39:03.295Z,6.82
2023-06-17T16:41:31.947Z,6.18
2023-06-17T16:43:59.198Z,6.13
2023-06-17T16:46:26.443Z,6.15
2023-06-17T16:48:53.952Z,5.85
2023-06-17T16:51:21.302Z,6.10
2023-06-17T16:53:48.757Z,5.88
2023-06-17T16:56:16.141Z,5.15
2023-06-17T16:58:44.811Z,6.38
2023-06-17T17:01:12.158Z,6.68
2023-06-17T17:03:39.599Z,5.03
2023-06-17T17:06:06.895Z,5.25
2023-06-17T17:08:34.501Z,5.78
2023-06-17T17:13:39.796Z,4.90
2023-06-17T17:16:16.711Z,6.25
2023-06-17T17:18:44.195Z,4.97
2023-06-17T17:21:11.456Z,4.88
2023-06-17T17:23:39.884Z,6.38
2023-06-17T17:26:07.562Z,5.78
2023-06-17T17:28:34.833Z,6.22
2023-06-17T17:31:02.633Z,6.65
2023-06-17T17:33:31.279Z,7.15
2023-06-17T17:35:58.502Z,5.97
2023-06-17T17:38:25.815Z,6.05
2023-06-17T17:40:53.279Z,6.10
2023-06-17T17:43:20.590Z,5.55
2023-06-17T17:45:47.940Z,6.70
2023-06-17T17:48:15.327Z,6.72
2023-06-17T17:50:43.973Z,7.13
2023-06-17T17:53:11.231Z,5.63
2023-06-17T17:55:38.551Z,6.80
2023-06-17T17:58:05.900Z,6.18
2023-06-17T18:00:33.256Z,7.80
2023-06-17T18:03:00.643Z,7.68
2023-06-17T18:05:27.978Z,6.90
2023-06-17T18:07:56.695Z,6.15
2023-06-17T18:10:24.261Z,6.40
2023-06-17T18:12:51.745Z,6.68
2023-06-17T18:15:19.058Z,7.20
2023-06-17T18:17:46.399Z,5.75
2023-06-17T18:20:13.754Z,7.35
2023-06-17T18:22:41.057Z,6.13
2023-06-17T18:25:10.720Z,6.95
2023-06-17T18:27:38.900Z,6.20
2023-06-17T18:30:07.550Z,6.18
2023-06-17T18:32:34.825Z,6.45
2023-06-17T18:35:02.084Z,6.30
2023-06-17T18:37:29.406Z,10.02
2023-06-17T18:39:56.701Z,7.00
2023-06-17T18:42:25.390Z,7.60
2023-06-17T18:44:52.712Z,7.18
2023-06-17T18:47:20.066Z,9.32
2023-06-17T18:49:50.435Z,9.00
2023-06-17T18:52:17.933Z,8.52
2023-06-17T18:54:45.201Z,9.00
2023-06-17T18:57:12.489Z,8.80
2023-06-17T18:59:41.107Z,7.45
2023-06-17T19:02:08.383Z,8.60
2023-06-17T19:04:35.679Z,8.18
2023-06-17T19:07:04.700Z,9.38
2023-06-17T19:09:32.134Z,9.85
2023-06-17T19:11:59.422Z,8.20
2023-06-17T19:14:26.732Z,9.10
2023-06-17T19:16:55.530Z,9.10
2023-06-17T19:19:22.904Z,9.13
2023-06-17T19:21:50.212Z,11.15
2023-06-17T19:24:17.571Z,9.45
2023-06-17T19:26:44.948Z,10.52
2023-06-17T19:29:12.317Z,9.85
2023-06-17T19:31:39.606Z,11.40
2023-06-17T19:34:08.249Z,10.75
2023-06-17T19:36:35.527Z,10.57
2023-06-17T19:39:02.784Z,13.25
2023-06-17T19:41:30.060Z,20.83
2023-06-17T19:43:57.380Z,18.52
2023-06-17T19:46:25.910Z,17.40
2023-06-17T19:48:53.292Z,14.73
2023-06-17T19:51:21.927Z,14.68
2023-06-17T19:53:49.202Z,17.15
2023-06-17T19:56:16.655Z,19.77
2023-06-17T19:58:44.112Z,23.17
2023-06-17T20:01:11.443Z,18.98
2023-06-17T20:03:38.848Z,19.20
2023-06-17T20:06:06.235Z,18.20
2023-06-17T20:08:34.886Z,18.15
2023-06-17T20:11:02.103Z,17.45
2023-06-17T20:13:29.388Z,24.00
2023-06-17T20:15:56.796Z,23.65
2023-06-17T20:18:24.151Z,23.60
2023-06-17T20:20:51.529Z,18.80
2023-06-17T20:23:18.832Z,19.70
2023-06-17T20:25:47.455Z,21.38
2023-06-17T20:28:14.684Z,19.33
2023-06-17T20:30:41.936Z,21.10
2023-06-17T20:33:09.460Z,25.40
2023-06-17T20:35:36.794Z,25.15
2023-06-17T20:38:04.049Z,26.27
2023-06-17T20:40:31.363Z,26.08
2023-06-17T20:43:00.007Z,27.52
2023-06-17T20:45:27.253Z,26.50
2023-06-17T20:47:54.584Z,29.98
2023-06-17T20:50:22.035Z,28.23
2023-06-17T20:52:49.377Z,26.58
2023-06-17T20:55:16.635Z,28.90
2023-06-17T20:57:43.913Z,30.48
2023-06-17T21:00:14.000Z,27.23
2023-06-17T21:02:41.394Z,28.30
2023-06-17T21:05:08.989Z,26.42
2023-06-17T21:07:36.382Z,28.00
2023-06-17T21:10:04.363Z,22.70
2023-06-17T21:12:31.897Z,19.80
2023-06-17T21:14:59.414Z,23.88
2023-06-17T21:17:28.079Z,28.35
2023-06-17T21:19:56.681Z,27.88
2023-06-17T21:22:24.005Z,33.20
2023-06-17T21:24:51.250Z,34.38
2023-06-17T21:27:18.826Z,27.38
2023-06-17T21:29:46.419Z,29.20
2023-06-17T21:32:13.671Z,32.47
2023-06-17T21:34:44.601Z,32.20
2023-06-17T21:37:11.841Z,31.13
2023-06-17T21:39:39.142Z,30.27
2023-06-17T21:42:06.617Z,30.05
2023-06-17T21:44:34.694Z,30.70
2023-06-17T21:47:02.139Z,28.90
2023-06-17T21:49:29.454Z,34.45
2023-06-17T21:51:58.109Z,33.25
2023-06-17T21:54:25.341Z,35.20
2023-06-17T21:56:52.661Z,34.03
2023-06-17T21:59:19.900Z,38.85
2023-06-17T22:01:47.225Z,34.60
2023-06-17T22:04:14.659Z,33.53
2023-06-17T22:06:41.891Z,32.92
2023-06-17T22:09:10.599Z,31.85
2023-06-17T22:11:37.908Z,33.15
2023-06-17T22:14:05.167Z,33.78
2023-06-17T22:16:32.457Z,34.97
2023-06-17T22:18:59.811Z,34.55
2023-06-17T22:21:27.074Z,33.40
2023-06-17T22:23:54.382Z,32.35
2023-06-17T22:26:23.170Z,35.53
2023-06-17T22:28:50.535Z,34.70
2023-06-17T22:31:17.888Z,36.28
2023-06-17T22:33:45.174Z,34.03
2023-06-17T22:36:12.548Z,33.95
2023-06-17T22:38:39.926Z,36.33
2023-06-17T22:41:07.357Z,35.00
2023-06-17T22:43:36.323Z,32.97
2023-06-17T22:46:03.865Z,33.42
2023-06-17T22:48:31.264Z,32.30
2023-06-17T22:50:58.524Z,29.98
2023-06-17T22:53:25.876Z,30.70
2023-06-17T22:55:53.142Z,31.40
2023-06-17T22:58:20.410Z,29.85
2023-06-17T23:00:49.258Z,34.00
2023-06-17T23:03:16.607Z,35.03
2023-06-17T23:05:43.974Z,34.15
2023-06-17T23:08:11.216Z,33.65
2023-06-17T23:10:38.528Z,34.75
2023-06-17T23:13:05.805Z,40.63
2023-06-17T23:15:33.466Z,34.67
2023-06-17T23:18:02.184Z,36.47
2023-06-17T23:20:29.703Z,33.97
2023-06-17T23:22:56.939Z,36.70
2023-06-17T23:25:24.144Z,37.17
2023-06-17T23:27:51.376Z,38.78
2023-06-17T23:30:18.786Z,38.80
2023-06-17T23:32:46.437Z,38.92
2023-06-17T23:35:15.306Z,38.25
2023-06-17T23:37:42.568Z,39.08
2023-06-17T23:40:10.420Z,35.88
2023-06-17T23:42:37.726Z,39.90
2023-06-17T23:45:05.714Z,36.58
2023-06-17T23:50:00.233Z,40.17
2023-06-17T23:52:28.841Z,35.72
2023-06-17T23:54:56.335Z,36.90
2023-06-17T23:57:23.624Z,35.17
2023-06-17T23:59:50.884Z,34.20
